createdAt,value
2023-05-11T00:01:48.440Z,9.10
2023-05-11T00:04:15.188Z,8.35
2023-05-11T00:06:41.893Z,8.20
2023-05-11T00:09:09.429Z,8.80
2023-05-11T00:11:36.168Z,9.88
2023-05-11T00:14:02.813Z,8.32
2023-05-11T00:16:29.518Z,9.10
2023-05-11T00:18:56.422Z,9.60
2023-05-11T00:21:23.207Z,9.18
2023-05-11T00:23:50.012Z,10.00
2023-05-11T00:26:16.691Z,9.60
2023-05-11T00:28:43.300Z,10.43
2023-05-11T00:31:09.965Z,10.00
2023-05-11T00:33:36.611Z,10.77
2023-05-11T00:36:03.840Z,10.45
2023-05-11T00:38:30.451Z,11.38
2023-05-11T00:40:57.280Z,10.75
2023-05-11T00:43:23.871Z,10.90
2023-05-11T00:45:52.317Z,11.25
2023-05-11T00:48:18.936Z,10.45
2023-05-11T00:50:45.542Z,10.90
2023-05-11T00:53:13.146Z,10.57
2023-05-11T00:55:39.813Z,9.90
2023-05-11T00:58:06.598Z,12.25
2023-05-11T01:00:33.332Z,9.43
2023-05-11T01:03:00.775Z,8.82
2023-05-11T01:05:48.315Z,10.80
2023-05-11T01:08:18.947Z,10.30
2023-05-11T01:10:49.403Z,8.50
2023-05-11T01:13:27.223Z,9.38
2023-05-11T01:15:56.878Z,10.65
2023-05-11T01:18:30.882Z,11.13
2023-05-11T01:21:01.360Z,10.95
2023-05-11T01:23:37.245Z,11.13
2023-05-11T01:26:25.724Z,10.07
2023-05-11T01:29:03.469Z,9.30
2023-05-11T01:31:31.366Z,10.40
2023-05-11T01:34:00.518Z,10.05
2023-05-11T01:36:29.381Z,11.50
2023-05-11T01:38:56.546Z,9.77
2023-05-11T01:41:23.400Z,10.27
2023-05-11T01:43:53.835Z,13.57
2023-05-11T01:46:21.635Z,12.95
2023-05-11T01:48:49.184Z,10.63
2023-05-11T01:51:15.820Z,15.57
2023-05-11T01:53:42.419Z,12.55
2023-05-11T01:56:09.034Z,11.75
2023-05-11T01:58:36.264Z,11.07
2023-05-11T02:01:03.268Z,11.38
2023-05-11T02:03:31.212Z,13.63
2023-05-11T02:05:58.000Z,12.48
2023-05-11T02:08:24.856Z,13.18
2023-05-11T02:10:51.484Z,11.38
2023-05-11T02:13:18.313Z,13.70
2023-05-11T02:15:45.101Z,11.95
2023-05-11T02:18:14.013Z,12.68
2023-05-11T02:20:45.451Z,11.90
2023-05-11T02:23:12.126Z,14.32
2023-05-11T02:25:39.350Z,12.57
2023-05-11T02:28:06.137Z,12.63
2023-05-11T02:30:33.084Z,13.00
2023-05-11T02:33:00.220Z,12.00
2023-05-11T02:35:29.093Z,12.18
2023-05-11T02:37:57.875Z,11.50
2023-05-11T02:40:28.373Z,12.02
2023-05-11T02:42:57.087Z,12.93
2023-05-11T02:45:23.675Z,13.15
2023-05-11T02:47:54.743Z,12.57
2023-05-11T02:50:22.564Z,11.63
2023-05-11T02:52:49.249Z,12.77
2023-05-11T02:55:17.177Z,11.43
2023-05-11T02:57:44.729Z,11.38
2023-05-11T03:00:11.827Z,11.40
2023-05-11T03:02:38.539Z,11.02
2023-05-11T03:05:06.010Z,11.00
2023-05-11T03:07:33.127Z,10.60
2023-05-11T03:10:00.074Z,11.52
2023-05-11T03:12:31.442Z,11.18
2023-05-11T03:14:59.662Z,12.60
2023-05-11T03:17:27.489Z,11.80
2023-05-11T03:19:54.749Z,11.48
2023-05-11T03:22:21.612Z,10.40
2023-05-11T03:24:48.230Z,11.38
2023-05-11T03:27:14.828Z,10.68
2023-05-11T03:29:42.896Z,11.10
2023-05-11T03:32:09.709Z,11.15
2023-05-11T03:34:36.364Z,12.32
2023-05-11T03:37:03.601Z,11.68
2023-05-11T03:39:30.476Z,11.43
2023-05-11T03:41:57.078Z,12.93
2023-05-11T03:44:23.738Z,12.38
2023-05-11T03:46:50.587Z,11.25
2023-05-11T03:49:17.543Z,12.57
2023-05-11T03:51:44.313Z,12.70
2023-05-11T03:54:11.173Z,10.82
2023-05-11T03:56:38.323Z,12.50
2023-05-11T03:59:04.922Z,12.20
2023-05-11T04:01:31.979Z,10.95
2023-05-11T04:03:58.642Z,10.05
2023-05-11T04:06:25.467Z,10.38
2023-05-11T04:08:52.059Z,9.98
2023-05-11T04:11:18.676Z,11.23
2023-05-11T04:13:45.311Z,12.77
2023-05-11T04:16:12.041Z,12.57
2023-05-11T04:18:38.761Z,11.40
2023-05-11T04:21:06.255Z,14.05
2023-05-11T04:23:32.887Z,14.40
2023-05-11T04:25:59.553Z,14.57
2023-05-11T04:28:27.887Z,18.25
2023-05-11T04:30:55.457Z,15.90
2023-05-11T04:33:22.614Z,19.45
2023-05-11T04:35:53.186Z,18.00
2023-05-11T04:38:20.494Z,17.63
2023-05-11T04:40:47.997Z,15.23
2023-05-11T04:43:14.935Z,16.45
2023-05-11T04:45:41.578Z,20.40
2023-05-11T04:48:08.236Z,17.25
2023-05-11T04:50:34.900Z,19.17
2023-05-11T04:53:01.508Z,16.48
2023-05-11T04:55:28.122Z,18.90
2023-05-11T04:57:54.736Z,15.52
2023-05-11T05:00:21.758Z,16.92
2023-05-11T05:02:51.155Z,18.15
2023-05-11T05:05:18.053Z,18.33
2023-05-11T05:07:44.778Z,17.27
2023-05-11T05:10:12.415Z,17.48
2023-05-11T05:12:39.352Z,18.17
2023-05-11T05:15:06.587Z,16.33
2023-05-11T05:17:33.309Z,13.88
2023-05-11T05:19:59.951Z,15.45
2023-05-11T05:22:26.700Z,15.57
2023-05-11T05:24:53.309Z,14.77
2023-05-11T05:27:19.910Z,14.85
2023-05-11T05:29:46.529Z,15.40
2023-05-11T05:32:13.133Z,12.63
2023-05-11T05:34:39.756Z,12.25
2023-05-11T05:37:06.445Z,11.95
2023-05-11T05:39:33.085Z,12.10
2023-05-11T05:41:59.681Z,12.77
2023-05-11T05:44:26.360Z,10.20
2023-05-11T05:46:52.966Z,12.45
2023-05-11T05:49:19.709Z,12.95
2023-05-11T05:51:46.553Z,11.23
2023-05-11T05:54:13.413Z,10.52
2023-05-11T05:56:40.817Z,11.20
2023-05-11T05:59:10.904Z,11.55
2023-05-11T06:01:41.300Z,10.88
2023-05-11T06:04:08.261Z,11.10
2023-05-11T06:06:34.995Z,10.95
2023-05-11T06:09:01.606Z,11.93
2023-05-11T06:11:28.220Z,10.68
2023-05-11T06:13:54.879Z,10.63
2023-05-11T06:16:21.600Z,11.98
2023-05-11T06:18:48.338Z,10.25
2023-05-11T06:21:15.169Z,11.38
2023-05-11T06:23:41.805Z,16.65
2023-05-11T06:26:08.433Z,13.93
2023-05-11T06:28:35.073Z,10.50
2023-05-11T06:31:03.734Z,9.45
2023-05-11T06:33:30.531Z,8.63
2023-05-11T06:35:57.342Z,9.25
2023-05-11T06:38:23.954Z,8.48
2023-05-11T06:40:53.845Z,7.45
2023-05-11T06:43:20.450Z,9.00
2023-05-11T06:45:47.125Z,7.20
2023-05-11T06:48:14.796Z,7.93
2023-05-11T06:50:41.410Z,7.72
2023-05-11T06:53:08.131Z,7.28
2023-05-11T06:55:34.750Z,8.02
2023-05-11T06:58:01.705Z,7.70
2023-05-11T07:00:28.407Z,7.30
2023-05-11T07:02:55.085Z,7.45
2023-05-11T07:05:21.721Z,7.30
2023-05-11T07:07:48.346Z,9.23
2023-05-11T07:10:15.167Z,7.40
2023-05-11T07:12:41.785Z,7.45
2023-05-11T07:15:08.989Z,8.15
2023-05-11T07:17:35.706Z,7.68
2023-05-11T07:20:02.365Z,7.68
2023-05-11T07:22:29.003Z,7.88
2023-05-11T07:24:55.615Z,7.13
2023-05-11T07:27:22.218Z,7.43
2023-05-11T07:29:48.859Z,7.15
2023-05-11T07:32:15.463Z,9.25
2023-05-11T07:34:42.275Z,9.05
2023-05-11T07:37:09.104Z,8.32
2023-05-11T07:39:35.800Z,8.20
2023-05-11T07:42:02.456Z,7.40
2023-05-11T07:44:29.071Z,9.02
2023-05-11T07:46:55.813Z,8.80
2023-05-11T07:49:28.237Z,8.10
2023-05-11T07:52:02.064Z,7.35
2023-05-11T07:54:28.711Z,7.43
2023-05-11T07:56:55.468Z,7.38
2023-05-11T07:59:22.078Z,7.18
2023-05-11T08:01:48.712Z,5.90
2023-05-11T08:04:15.402Z,7.57
2023-05-11T08:06:42.810Z,8.02
2023-05-11T08:09:09.678Z,7.80
2023-05-11T08:11:36.452Z,7.63
2023-05-11T08:14:03.814Z,6.50
2023-05-11T08:16:30.631Z,7.53
2023-05-11T08:18:57.367Z,8.23
2023-05-11T08:21:24.092Z,8.98
2023-05-11T08:23:50.837Z,7.55
2023-05-11T08:26:17.433Z,7.60
2023-05-11T08:28:44.083Z,7.80
2023-05-11T08:31:10.803Z,7.45
2023-05-11T08:33:38.860Z,7.45
2023-05-11T08:36:06.560Z,7.70
2023-05-11T08:38:34.782Z,7.13
2023-05-11T08:41:02.153Z,7.57
2023-05-11T08:43:29.266Z,7.38
2023-05-11T08:46:00.291Z,7.18
2023-05-11T08:48:26.971Z,6.88
2023-05-11T08:50:53.580Z,6.70
2023-05-11T08:53:20.167Z,7.47
2023-05-11T08:55:47.090Z,6.18
2023-05-11T08:58:19.253Z,6.80
2023-05-11T09:00:46.126Z,7.65
2023-05-11T09:03:12.791Z,6.20
2023-05-11T09:05:39.504Z,6.68
2023-05-11T09:08:06.173Z,6.97
2023-05-11T09:10:32.959Z,6.60
2023-05-11T09:12:59.559Z,6.28
2023-05-11T09:15:26.196Z,6.53
2023-05-11T09:17:52.831Z,6.93
2023-05-11T09:20:27.463Z,6.07
2023-05-11T09:22:54.066Z,6.40
2023-05-11T09:25:20.996Z,6.38
2023-05-11T09:27:47.890Z,5.95
2023-05-11T09:30:23.241Z,6.53
2023-05-11T09:32:50.331Z,6.60
2023-05-11T09:35:30.546Z,6.38
2023-05-11T09:38:07.885Z,5.53
2023-05-11T09:40:35.861Z,5.13
2023-05-11T09:43:03.728Z,4.70
2023-05-11T09:45:44.378Z,5.45
2023-05-11T09:48:17.150Z,4.72
2023-05-11T09:50:43.902Z,4.22
2023-05-11T09:53:11.014Z,4.78
2023-05-11T09:55:37.642Z,4.40
2023-05-11T09:58:04.637Z,4.47
2023-05-11T10:00:31.523Z,4.25
2023-05-11T10:03:02.948Z,4.97
2023-05-11T10:05:33.572Z,4.57
2023-05-11T10:08:03.902Z,5.47
2023-05-11T10:10:34.355Z,4.50
2023-05-11T10:13:01.797Z,4.15
2023-05-11T10:15:30.350Z,4.00
2023-05-11T10:17:58.417Z,4.72
2023-05-11T10:20:25.666Z,4.80
2023-05-11T10:22:53.552Z,5.60
2023-05-11T10:25:24.558Z,5.25
2023-05-11T10:27:51.371Z,5.20
2023-05-11T10:30:18.275Z,4.60
2023-05-11T10:32:46.857Z,4.00
2023-05-11T10:35:13.545Z,5.38
2023-05-11T10:37:43.325Z,4.53
2023-05-11T10:40:10.586Z,5.20
2023-05-11T10:43:14.700Z,4.68
2023-05-11T10:45:50.659Z,4.45
2023-05-11T10:48:17.306Z,3.40
2023-05-11T10:51:01.973Z,3.75
2023-05-11T10:53:37.831Z,4.07
2023-05-11T10:56:17.518Z,3.90
2023-05-11T10:59:09.140Z,4.32
2023-05-11T11:01:42.469Z,3.45
2023-05-11T11:04:10.482Z,2.90
2023-05-11T11:06:41.535Z,2.70
2023-05-11T11:09:13.517Z,2.92
2023-05-11T11:11:47.836Z,2.88
2023-05-11T11:14:15.773Z,3.42
2023-05-11T11:17:02.164Z,3.75
2023-05-11T11:19:29.081Z,3.85
2023-05-11T11:21:56.736Z,3.42
2023-05-11T11:24:38.450Z,2.83
2023-05-11T11:27:05.662Z,2.67
2023-05-11T11:29:33.410Z,2.45
2023-05-11T11:32:22.580Z,3.05
2023-05-11T11:34:49.884Z,2.90
2023-05-11T11:37:17.292Z,3.05
2023-05-11T11:39:43.864Z,3.72
2023-05-11T11:42:17.528Z,3.67
2023-05-11T11:44:44.792Z,3.20
2023-05-11T11:47:19.741Z,3.33
2023-05-11T11:49:47.763Z,3.70
2023-05-11T11:52:32.273Z,4.40
2023-05-11T11:57:34.853Z,4.00
2023-05-11T12:00:06.783Z,4.30
2023-05-11T12:02:33.890Z,5.10
2023-05-11T12:05:21.461Z,4.53
2023-05-11T12:07:49.526Z,4.28
2023-05-11T12:10:17.783Z,5.47
2023-05-11T12:12:51.385Z,4.40
2023-05-11T12:15:27.665Z,4.78
2023-05-11T12:17:54.666Z,4.80
2023-05-11T12:20:21.581Z,4.60
2023-05-11T12:22:49.322Z,4.40
2023-05-11T12:25:19.720Z,4.40
2023-05-11T12:27:51.151Z,4.00
2023-05-11T12:30:24.840Z,3.60
2023-05-11T12:35:32.750Z,3.55
2023-05-11T12:38:00.286Z,4.00
2023-05-11T12:40:27.179Z,4.65
2023-05-11T12:42:54.993Z,3.97
2023-05-11T12:45:22.615Z,3.60
2023-05-11T12:47:49.869Z,3.38
2023-05-11T12:50:17.003Z,4.43
2023-05-11T12:52:43.916Z,4.32
2023-05-11T12:55:11.636Z,4.65
2023-05-11T12:57:39.118Z,4.38
2023-05-11T13:00:05.729Z,5.20
2023-05-11T13:02:32.644Z,4.78
2023-05-11T13:04:59.428Z,5.13
2023-05-11T13:07:27.712Z,5.95
2023-05-11T13:10:00.456Z,5.15
2023-05-11T13:12:29.637Z,4.80
2023-05-11T13:15:13.305Z,5.43
2023-05-11T13:17:41.659Z,5.55
2023-05-11T13:20:26.266Z,6.22
2023-05-11T13:25:31.925Z,6.82
2023-05-11T13:27:58.642Z,7.22
2023-05-11T13:30:25.322Z,7.20
2023-05-11T13:32:52.259Z,7.75
2023-05-11T13:35:19.273Z,7.63
2023-05-11T13:37:46.974Z,7.20
2023-05-11T13:40:13.976Z,5.45
2023-05-11T13:42:42.074Z,6.45
2023-05-11T13:45:09.118Z,6.38
2023-05-11T13:47:36.044Z,7.20
2023-05-11T13:50:03.991Z,5.50
2023-05-11T13:52:31.144Z,2.97
2023-05-11T13:54:57.768Z,3.22
2023-05-11T13:57:24.503Z,3.10
2023-05-11T13:59:51.192Z,2.45
2023-05-11T14:02:17.998Z,3.05
2023-05-11T14:04:44.647Z,2.85
2023-05-11T14:07:11.266Z,3.35
2023-05-11T14:09:37.958Z,3.38
2023-05-11T14:12:04.908Z,3.25
2023-05-11T14:14:31.769Z,3.58
2023-05-11T14:16:58.437Z,3.88
2023-05-11T14:19:25.115Z,3.70
2023-05-11T14:21:52.075Z,4.20
2023-05-11T14:24:18.700Z,4.40
2023-05-11T14:26:46.399Z,4.22
2023-05-11T14:29:13.077Z,3.55
2023-05-11T14:31:40.215Z,3.88
2023-05-11T14:34:06.859Z,4.57
2023-05-11T14:36:33.527Z,4.88
2023-05-11T14:39:00.180Z,4.95
2023-05-11T14:41:26.954Z,5.53
2023-05-11T14:43:53.585Z,4.82
2023-05-11T14:46:21.532Z,3.67
2023-05-11T14:48:48.189Z,4.05
2023-05-11T14:51:14.842Z,4.22
2023-05-11T14:53:41.497Z,4.32
2023-05-11T14:56:08.184Z,5.10
2023-05-11T14:58:35.314Z,5.30
2023-05-11T15:01:02.139Z,4.93
2023-05-11T15:03:28.919Z,5.80
2023-05-11T15:05:55.726Z,5.43
2023-05-11T15:08:29.470Z,5.07
2023-05-11T15:10:57.092Z,5.53
2023-05-11T15:13:24.197Z,5.15
2023-05-11T15:15:51.389Z,4.50
2023-05-11T15:18:18.280Z,4.68
2023-05-11T15:20:45.034Z,4.70
2023-05-11T15:23:16.368Z,4.55
2023-05-11T15:25:44.383Z,4.03
2023-05-11T15:28:13.744Z,3.38
2023-05-11T15:30:41.581Z,3.70
2023-05-11T15:33:10.423Z,3.00
2023-05-11T15:35:37.417Z,3.08
2023-05-11T15:38:04.077Z,2.60
2023-05-11T15:40:30.910Z,2.78
2023-05-11T15:42:58.810Z,3.15
2023-05-11T15:45:25.688Z,2.60
2023-05-11T15:47:52.349Z,2.72
2023-05-11T15:50:19.266Z,2.63
2023-05-11T15:52:46.072Z,2.60
2023-05-11T15:55:12.683Z,2.95
2023-05-11T15:57:39.303Z,2.90
2023-05-11T16:00:06.576Z,3.70
2023-05-11T16:02:33.322Z,2.95
2023-05-11T16:04:59.996Z,3.15
2023-05-11T16:07:27.189Z,3.33
2023-05-11T16:09:53.926Z,2.40
2023-05-11T16:12:20.537Z,2.90
2023-05-11T16:14:47.136Z,3.20
2023-05-11T16:17:14.128Z,2.95
2023-05-11T16:19:40.844Z,3.40
2023-05-11T16:22:07.472Z,2.97
2023-05-11T16:24:34.582Z,3.30
2023-05-11T16:27:01.465Z,3.10
2023-05-11T16:29:28.173Z,2.90
2023-05-11T16:31:55.518Z,3.03
2023-05-11T16:34:24.927Z,3.03
2023-05-11T16:36:51.576Z,3.05
2023-05-11T16:39:18.187Z,2.75
2023-05-11T16:41:44.824Z,2.90
2023-05-11T16:44:11.451Z,2.80
2023-05-11T16:46:38.138Z,2.90
2023-05-11T16:49:04.779Z,3.17
2023-05-11T16:51:31.519Z,3.25
2023-05-11T16:53:58.183Z,3.10
2023-05-11T16:56:24.905Z,2.80
2023-05-11T16:58:54.914Z,2.95
2023-05-11T17:01:21.627Z,3.00
2023-05-11T17:03:48.381Z,2.65
2023-05-11T17:06:19.647Z,2.65
2023-05-11T17:08:47.433Z,2.50
2023-05-11T17:11:14.553Z,2.47
2023-05-11T17:13:41.227Z,2.17
2023-05-11T17:16:08.058Z,2.40
2023-05-11T17:18:34.841Z,2.60
2023-05-11T17:21:01.506Z,2.20
2023-05-11T17:23:28.508Z,2.30
2023-05-11T17:25:55.541Z,1.92
2023-05-11T17:28:22.258Z,2.05
2023-05-11T17:30:52.677Z,2.00
2023-05-11T17:33:19.535Z,2.03
2023-05-11T17:35:46.210Z,2.13
2023-05-11T17:38:13.052Z,1.98
2023-05-11T17:40:39.668Z,2.50
2023-05-11T17:43:06.514Z,2.28
2023-05-11T17:45:33.305Z,2.42
2023-05-11T17:48:00.087Z,2.75
2023-05-11T17:50:26.808Z,2.20
2023-05-11T17:52:53.471Z,2.15
2023-05-11T17:55:20.277Z,2.45
2023-05-11T17:57:47.085Z,2.55
2023-05-11T18:00:14.141Z,2.65
2023-05-11T18:02:40.901Z,3.08
2023-05-11T18:05:07.833Z,2.60
2023-05-11T18:07:34.480Z,2.70
2023-05-11T18:10:01.132Z,2.45
2023-05-11T18:12:27.798Z,2.78
2023-05-11T18:14:54.420Z,2.25
2023-05-11T18:17:21.900Z,2.17
2023-05-11T18:19:48.542Z,2.40
2023-05-11T18:22:15.149Z,2.78
2023-05-11T18:24:41.751Z,2.45
2023-05-11T18:27:08.352Z,2.58
2023-05-11T18:29:35.262Z,2.63
2023-05-11T18:32:01.981Z,2.50
2023-05-11T18:34:28.764Z,2.70
2023-05-11T18:36:55.478Z,2.80
2023-05-11T18:39:22.112Z,2.70
2023-05-11T18:41:48.922Z,2.90
2023-05-11T18:44:16.302Z,2.83
2023-05-11T18:46:43.117Z,2.97
2023-05-11T18:49:09.776Z,3.03
2023-05-11T18:51:36.568Z,2.80
2023-05-11T18:54:03.255Z,3.03
2023-05-11T18:56:29.877Z,3.65
2023-05-11T18:58:56.485Z,4.07
2023-05-11T19:01:28.191Z,4.35
2023-05-11T19:03:59.876Z,4.05
2023-05-11T19:06:26.518Z,5.05
2023-05-11T19:08:55.143Z,4.18
2023-05-11T19:11:22.806Z,3.95
2023-05-11T19:13:50.434Z,5.03
2023-05-11T19:16:17.158Z,4.45
2023-05-11T19:18:43.931Z,4.82
2023-05-11T19:21:10.636Z,5.05
2023-05-11T19:23:37.221Z,4.00
2023-05-11T19:26:03.831Z,5.57
2023-05-11T19:28:30.431Z,4.93
2023-05-11T19:31:04.522Z,5.53
2023-05-11T19:33:31.314Z,4.80
2023-05-11T19:35:57.930Z,5.38
2023-05-11T19:38:24.563Z,5.00
2023-05-11T19:40:51.877Z,6.30
2023-05-11T19:43:18.797Z,5.40
2023-05-11T19:45:45.588Z,6.60
2023-05-11T19:48:13.376Z,5.95
2023-05-11T19:50:40.667Z,6.28
2023-05-11T19:53:07.446Z,7.10
2023-05-11T19:55:34.050Z,6.55
2023-05-11T19:58:00.735Z,7.10
2023-05-11T20:00:27.372Z,7.28
2023-05-11T20:02:54.227Z,8.15
2023-05-11T20:05:20.926Z,8.38
2023-05-11T20:07:47.579Z,7.90
2023-05-11T20:10:14.192Z,7.55
2023-05-11T20:12:40.824Z,7.72
2023-05-11T20:15:08.388Z,9.43
2023-05-11T20:17:35.372Z,9.45
2023-05-11T20:20:02.429Z,10.02
2023-05-11T20:22:29.046Z,9.85
2023-05-11T20:24:56.179Z,10.48
2023-05-11T20:27:23.075Z,11.30
2023-05-11T20:29:49.689Z,11.30
2023-05-11T20:32:16.289Z,11.27
2023-05-11T20:34:42.916Z,11.05
2023-05-11T20:37:09.537Z,10.98
2023-05-11T20:39:36.336Z,11.65
2023-05-11T20:42:04.174Z,12.15
2023-05-11T20:44:30.775Z,12.32
2023-05-11T20:46:57.437Z,12.13
2023-05-11T20:49:37.658Z,12.18
2023-05-11T20:52:06.336Z,11.98
2023-05-11T20:54:34.797Z,12.00
2023-05-11T20:57:02.012Z,11.90
2023-05-11T21:01:59.008Z,12.13
2023-05-11T21:04:25.721Z,11.65
2023-05-11T21:06:55.267Z,12.10
2023-05-11T21:09:21.893Z,11.68
2023-05-11T21:11:48.925Z,11.85
2023-05-11T21:14:15.614Z,12.80
2023-05-11T21:16:42.296Z,12.73
2023-05-11T21:19:09.114Z,12.30
2023-05-11T21:21:35.856Z,11.40
2023-05-11T21:24:02.523Z,13.15
2023-05-11T21:26:29.131Z,12.75
2023-05-11T21:28:57.155Z,12.88
2023-05-11T21:31:23.847Z,11.63
2023-05-11T21:33:51.702Z,10.93
2023-05-11T21:36:18.317Z,9.40
2023-05-11T21:38:44.993Z,9.50
2023-05-11T21:41:11.713Z,8.23
2023-05-11T21:43:38.301Z,7.43
2023-05-11T21:46:05.204Z,7.47
2023-05-11T21:48:31.825Z,7.85
2023-05-11T21:50:58.410Z,7.13
2023-05-11T21:53:24.990Z,6.50
2023-05-11T21:55:51.601Z,6.55
2023-05-11T21:58:18.180Z,5.78
2023-05-11T22:00:45.206Z,6.45
2023-05-11T22:03:11.907Z,6.63
2023-05-11T22:05:38.693Z,6.05
2023-05-11T22:08:14.130Z,5.32
2023-05-11T22:10:42.797Z,5.53
2023-05-11T22:13:09.460Z,4.45
2023-05-11T22:15:36.233Z,3.90
2023-05-11T22:18:03.521Z,3.15
2023-05-11T22:20:31.642Z,2.67
2023-05-11T22:22:59.070Z,2.33
2023-05-11T22:25:25.816Z,2.17
2023-05-11T22:27:52.621Z,2.30
2023-05-11T22:30:19.773Z,2.03
2023-05-11T22:32:46.783Z,1.50
2023-05-11T22:35:13.480Z,2.10
2023-05-11T22:37:40.144Z,1.70
2023-05-11T22:40:09.143Z,2.08
2023-05-11T22:42:35.758Z,2.13
2023-05-11T22:45:02.482Z,2.08
2023-05-11T22:47:29.363Z,1.80
2023-05-11T22:49:56.061Z,2.17
2023-05-11T22:52:22.669Z,1.77
2023-05-11T22:54:54.441Z,2.17
2023-05-11T22:57:21.319Z,2.10
2023-05-11T22:59:47.925Z,1.85
2023-05-11T23:02:14.604Z,1.80
2023-05-11T23:04:41.396Z,2.58
2023-05-11T23:07:07.989Z,1.88
2023-05-11T23:09:35.048Z,2.03
2023-05-11T23:12:01.705Z,2.00
2023-05-11T23:14:28.757Z,1.98
2023-05-11T23:16:57.704Z,2.50
2023-05-11T23:19:25.148Z,1.85
2023-05-11T23:21:51.822Z,1.83
2023-05-11T23:24:18.479Z,2.03
2023-05-11T23:26:45.127Z,2.10
2023-05-11T23:29:11.821Z,1.90
2023-05-11T23:31:39.017Z,2.33
2023-05-11T23:34:05.693Z,2.20
2023-05-11T23:36:32.317Z,2.25
2023-05-11T23:38:59.368Z,2.17
2023-05-11T23:41:25.988Z,2.17
2023-05-11T23:43:52.570Z,2.05
2023-05-11T23:46:19.526Z,1.98
2023-05-11T23:48:46.193Z,2.25
2023-05-11T23:51:12.980Z,1.83
2023-05-11T23:53:39.629Z,2.28
2023-05-11T23:56:06.664Z,2.00
2023-05-11T23:58:33.259Z,2.22
